Booneville, Iowa
Current Conditions -  °F | °C
As of 3:54 PM on Tuesday 21 Oct 2014 (Local Time) from KDSM Reporting Station
Few Clouds Few Clouds  
Wind Chill: 66°   Ceiling: Unl
Heat Index: 66°   Visibility: 10mi
Dew Point: 44°   Wind: 12mph
Humidity: 45%   Direction: 110°ESE
Pressure: 30.11"   Gusts: NA
Location:  41.52°N, 93.88°W
Report Text: KDSM 212054Z 11010KT 10SM FEW300 19/07 A3011 RMK AO2 SLP197 T01890067 55011
Loading
Personal Weather Stations






























Interactive Weather Map
Tropical Storm Tracking
New forecast layout! Learn more

10-Day Weather Forecast

Advertisements
Track Severe Weather on mobile